sensor_id;sensor_type;location;lat;lon;timestamp;pressure;altitude;pressure_sealevel;temperature;humidity
13050;BME280;6591;51.446;5.404;2023-03-14T00:01:19;98673.81;;;18.93;46.79
13050;BME280;6591;51.446;5.404;2023-03-14T00:03:50;98677.16;;;18.95;47.01
13050;BME280;6591;51.446;5.404;2023-03-14T00:06:18;98670.28;;;18.93;46.33
13050;BME280;6591;51.446;5.404;2023-03-14T00:08:46;98692.81;;;18.92;46.62
13050;BME280;6591;51.446;5.404;2023-03-14T00:11:19;98674.69;;;18.86;46.13
13050;BME280;6591;51.446;5.404;2023-03-14T00:13:51;98677.72;;;18.83;45.65
13050;BME280;6591;51.446;5.404;2023-03-14T00:16:20;98687.19;;;18.79;45.75
13050;BME280;6591;51.446;5.404;2023-03-14T00:18:47;98685.19;;;18.73;45.66
13050;BME280;6591;51.446;5.404;2023-03-14T00:21:15;98686.50;;;18.69;45.61
13050;BME280;6591;51.446;5.404;2023-03-14T00:23:43;98697.63;;;18.66;45.53
13050;BME280;6591;51.446;5.404;2023-03-14T00:26:16;98693.78;;;18.60;45.52
13050;BME280;6591;51.446;5.404;2023-03-14T00:28:45;98687.94;;;18.56;45.44
13050;BME280;6591;51.446;5.404;2023-03-14T00:31:15;98699.34;;;18.50;45.51
13050;BME280;6591;51.446;5.404;2023-03-14T00:33:44;98699.34;;;18.42;45.23
13050;BME280;6591;51.446;5.404;2023-03-14T00:36:15;98709.78;;;18.37;45.25
13050;BME280;6591;51.446;5.404;2023-03-14T00:38:45;98707.59;;;18.33;45.57
13050;BME280;6591;51.446;5.404;2023-03-14T00:41:15;98700.91;;;18.29;45.71
13050;BME280;6591;51.446;5.404;2023-03-14T00:43:43;98713.66;;;18.27;45.60
13050;BME280;6591;51.446;5.404;2023-03-14T00:46:11;98711.16;;;18.25;45.65
13050;BME280;6591;51.446;5.404;2023-03-14T00:48:38;98712.84;;;18.26;45.46
13050;BME280;6591;51.446;5.404;2023-03-14T00:51:07;98723.59;;;18.26;44.95
13050;BME280;6591;51.446;5.404;2023-03-14T00:53:37;98718.88;;;18.28;45.32
13050;BME280;6591;51.446;5.404;2023-03-14T00:56:09;98709.63;;;18.31;45.37
13050;BME280;6591;51.446;5.404;2023-03-14T00:58:37;98712.97;;;18.33;45.38
13050;BME280;6591;51.446;5.404;2023-03-14T01:01:17;98706.75;;;18.32;45.03
13050;BME280;6591;51.446;5.404;2023-03-14T01:03:46;98712.66;;;18.36;45.50
13050;BME280;6591;51.446;5.404;2023-03-14T01:06:19;98708.28;;;18.35;45.12
13050;BME280;6591;51.446;5.404;2023-03-14T01:08:47;98707.44;;;18.34;45.52
13050;BME280;6591;51.446;5.404;2023-03-14T01:11:19;98708.63;;;18.32;45.41
13050;BME280;6591;51.446;5.404;2023-03-14T01:13:46;98714.81;;;18.32;45.10
13050;BME280;6591;51.446;5.404;2023-03-14T01:16:14;98714.19;;;18.30;45.45
13050;BME280;6591;51.446;5.404;2023-03-14T01:18:44;98709.13;;;18.27;45.24
13050;BME280;6591;51.446;5.404;2023-03-14T01:21:19;98699.56;;;18.25;45.13
13050;BME280;6591;51.446;5.404;2023-03-14T01:23:47;98700.41;;;18.25;45.47
13050;BME280;6591;51.446;5.404;2023-03-14T01:26:19;98691.69;;;18.23;45.35
13050;BME280;6591;51.446;5.404;2023-03-14T01:28:47;98693.34;;;18.24;45.21
13050;BME280;6591;51.446;5.404;2023-03-14T01:31:17;98689.16;;;18.21;45.63
13050;BME280;6591;51.446;5.404;2023-03-14T01:33:45;98680.28;;;18.21;45.49
13050;BME280;6591;51.446;5.404;2023-03-14T01:36:13;98678.41;;;18.21;45.32
13050;BME280;6591;51.446;5.404;2023-03-14T01:38:42;98672.22;;;18.21;45.03
13050;BME280;6591;51.446;5.404;2023-03-14T01:41:22;98664.50;;;18.18;45.28
13050;BME280;6591;51.446;5.404;2023-03-14T01:43:53;98668.84;;;18.19;45.27
13050;BME280;6591;51.446;5.404;2023-03-14T01:46:44;98661.47;;;18.13;45.21
13050;BME280;6591;51.446;5.404;2023-03-14T01:49:22;98646.38;;;18.12;45.34
13050;BME280;6591;51.446;5.404;2023-03-14T01:52:05;98648.41;;;18.10;45.21
13050;BME280;6591;51.446;5.404;2023-03-14T01:54:51;98646.72;;;18.09;45.43
13050;BME280;6591;51.446;5.404;2023-03-14T01:57:32;98644.38;;;18.06;45.10
13050;BME280;6591;51.446;5.404;2023-03-14T02:00:16;98645.41;;;18.05;45.33
13050;BME280;6591;51.446;5.404;2023-03-14T02:02:55;98652.78;;;18.03;45.54
13050;BME280;6591;51.446;5.404;2023-03-14T02:05:30;98654.47;;;18.04;45.69
13050;BME280;6591;51.446;5.404;2023-03-14T02:08:20;98656.47;;;18.02;45.55
13050;BME280;6591;51.446;5.404;2023-03-14T02:10:50;98642.88;;;18.03;45.74
13050;BME280;6591;51.446;5.404;2023-03-14T02:13:24;98646.41;;;18.04;45.84
13050;BME280;6591;51.446;5.404;2023-03-14T02:16:16;98643.72;;;18.04;45.63
13050;BME280;6591;51.446;5.404;2023-03-14T02:20:04;98646.06;;;17.99;45.93
13050;BME280;6591;51.446;5.404;2023-03-14T02:22:44;98644.03;;;18.01;45.89
13050;BME280;6591;51.446;5.404;2023-03-14T02:25:17;98644.72;;;18.03;45.94
13050;BME280;6591;51.446;5.404;2023-03-14T02:27:48;98634.66;;;18.05;45.83
13050;BME280;6591;51.446;5.404;2023-03-14T02:30:23;98634.66;;;18.05;45.97
13050;BME280;6591;51.446;5.404;2023-03-14T02:33:03;98632.97;;;18.04;45.76
13050;BME280;6591;51.446;5.404;2023-03-14T02:35:40;98639.34;;;18.03;45.82
13050;BME280;6591;51.446;5.404;2023-03-14T02:38:31;98626.75;;;17.95;46.03
13050;BME280;6591;51.446;5.404;2023-03-14T02:41:03;98628.44;;;17.96;45.73
13050;BME280;6591;51.446;5.404;2023-03-14T02:43:38;98621.06;;;17.90;45.76
13050;BME280;6591;51.446;5.404;2023-03-14T02:46:13;98616.41;;;17.84;45.87
13050;BME280;6591;51.446;5.404;2023-03-14T02:48:47;98608.19;;;17.77;45.83
13050;BME280;6591;51.446;5.404;2023-03-14T02:51:16;98616.56;;;17.74;46.15
13050;BME280;6591;51.446;5.404;2023-03-14T02:53:46;98615.22;;;17.70;46.64
13050;BME280;6591;51.446;5.404;2023-03-14T02:56:14;98619.09;;;17.68;46.52
13050;BME280;6591;51.446;5.404;2023-03-14T02:58:41;98612.22;;;17.65;46.61
13050;BME280;6591;51.446;5.404;2023-03-14T03:01:25;98623.97;;;17.64;46.58
13050;BME280;6591;51.446;5.404;2023-03-14T03:03:53;98622.13;;;17.65;46.51
13050;BME280;6591;51.446;5.404;2023-03-14T03:06:20;98629.16;;;17.66;46.73
13050;BME280;6591;51.446;5.404;2023-03-14T03:08:47;98622.94;;;17.65;46.95
13050;BME280;6591;51.446;5.404;2023-03-14T03:11:14;98631.69;;;17.67;46.74
13050;BME280;6591;51.446;5.404;2023-03-14T03:13:41;98628.84;;;17.69;46.68
13050;BME280;6591;51.446;5.404;2023-03-14T03:16:09;98632.34;;;17.69;47.21
13050;BME280;6591;51.446;5.404;2023-03-14T03:18:36;98629.50;;;17.71;47.09
13050;BME280;6591;51.446;5.404;2023-03-14T03:21:04;98621.28;;;17.72;46.74
13050;BME280;6591;51.446;5.404;2023-03-14T03:23:32;98621.13;;;17.74;46.78
13050;BME280;6591;51.446;5.404;2023-03-14T03:25:59;98620.09;;;17.75;47.03
13050;BME280;6591;51.446;5.404;2023-03-14T03:28:26;98612.88;;;17.75;46.64
13050;BME280;6591;51.446;5.404;2023-03-14T03:30:54;98621.78;;;17.76;46.64
13050;BME280;6591;51.446;5.404;2023-03-14T03:33:22;98617.41;;;17.75;46.53
13050;BME280;6591;51.446;5.404;2023-03-14T03:35:51;98622.63;;;17.76;47.07
13050;BME280;6591;51.446;5.404;2023-03-14T03:38:25;98618.44;;;17.74;47.01
13050;BME280;6591;51.446;5.404;2023-03-14T03:40:54;98607.84;;;17.72;46.85
13050;BME280;6591;51.446;5.404;2023-03-14T03:43:24;98611.53;;;17.71;46.91
13050;BME280;6591;51.446;5.404;2023-03-14T03:45:51;98605.34;;;17.71;46.84
13050;BME280;6591;51.446;5.404;2023-03-14T03:48:19;98605.34;;;17.71;46.87
13050;BME280;6591;51.446;5.404;2023-03-14T03:50:47;98587.75;;;17.68;47.05
13050;BME280;6591;51.446;5.404;2023-03-14T03:53:18;98595.94;;;17.67;46.86
13050;BME280;6591;51.446;5.404;2023-03-14T03:56:01;98600.00;;;17.63;46.79
13050;BME280;6591;51.446;5.404;2023-03-14T03:58:28;98602.16;;;17.59;46.54
13050;BME280;6591;51.446;5.404;2023-03-14T04:00:55;98597.09;;;17.56;46.70
13050;BME280;6591;51.446;5.404;2023-03-14T04:03:22;98596.09;;;17.49;46.71
13050;BME280;6591;51.446;5.404;2023-03-14T04:06:06;98592.09;;;17.37;46.62
13050;BME280;6591;51.446;5.404;2023-03-14T04:08:36;98589.91;;;17.32;46.35
13050;BME280;6591;51.446;5.404;2023-03-14T04:11:03;98590.75;;;17.25;46.75
13050;BME280;6591;51.446;5.404;2023-03-14T04:13:51;98582.53;;;17.18;47.22
13050;BME280;6591;51.446;5.404;2023-03-14T04:16:24;98591.06;;;17.14;47.34
13050;BME280;6591;51.446;5.404;2023-03-14T04:19:01;98592.91;;;17.13;47.40
13050;BME280;6591;51.446;5.404;2023-03-14T04:21:28;98594.75;;;17.13;47.70
13050;BME280;6591;51.446;5.404;2023-03-14T04:23:57;98584.03;;;17.13;47.74
13050;BME280;6591;51.446;5.404;2023-03-14T04:26:27;98595.59;;;17.13;47.76
13050;BME280;6591;51.446;5.404;2023-03-14T04:28:55;98590.22;;;17.13;48.05
13050;BME280;6591;51.446;5.404;2023-03-14T04:31:22;98587.56;;;17.13;47.85
13050;BME280;6591;51.446;5.404;2023-03-14T04:33:51;98588.41;;;17.14;47.96
13050;BME280;6591;51.446;5.404;2023-03-14T04:36:25;98583.03;;;17.14;48.04
13050;BME280;6591;51.446;5.404;2023-03-14T04:38:53;98578.34;;;17.16;48.07
13050;BME280;6591;51.446;5.404;2023-03-14T04:41:23;98581.34;;;17.13;48.35
13050;BME280;6591;51.446;5.404;2023-03-14T04:43:51;98568.94;;;17.12;48.34
13050;BME280;6591;51.446;5.404;2023-03-14T04:46:18;98573.50;;;17.11;48.30
13050;BME280;6591;51.446;5.404;2023-03-14T04:48:45;98575.50;;;17.09;48.52
13050;BME280;6591;51.446;5.404;2023-03-14T04:51:13;98579.31;;;17.07;48.54
13050;BME280;6591;51.446;5.404;2023-03-14T04:53:40;98578.00;;;17.03;48.49
13050;BME280;6591;51.446;5.404;2023-03-14T04:56:10;98582.84;;;16.99;48.66
13050;BME280;6591;51.446;5.404;2023-03-14T04:58:41;98583.16;;;16.96;48.81
13050;BME280;6591;51.446;5.404;2023-03-14T05:01:09;98577.31;;;16.92;49.03
13050;BME280;6591;51.446;5.404;2023-03-14T05:03:36;98581.34;;;16.88;49.43
13050;BME280;6591;51.446;5.404;2023-03-14T05:06:10;98578.16;;;16.85;49.15
13050;BME280;6591;51.446;5.404;2023-03-14T05:08:51;98580.31;;;16.81;49.22
13050;BME280;6591;51.446;5.404;2023-03-14T05:11:21;98575.28;;;16.78;49.48
13050;BME280;6591;51.446;5.404;2023-03-14T05:14:06;98583.00;;;16.73;49.53
13050;BME280;6591;51.446;5.404;2023-03-14T05:16:58;98579.63;;;16.71;49.77
13050;BME280;6591;51.446;5.404;2023-03-14T05:19:35;98577.78;;;16.72;49.80
13050;BME280;6591;51.446;5.404;2023-03-14T05:22:14;98571.59;;;16.71;49.87
13050;BME280;6591;51.446;5.404;2023-03-14T05:24:54;98570.75;;;16.71;50.08
13050;BME280;6591;51.446;5.404;2023-03-14T05:27:26;98574.41;;;16.70;49.91
13050;BME280;6591;51.446;5.404;2023-03-14T05:30:13;98562.88;;;16.69;50.09
13050;BME280;6591;51.446;5.404;2023-03-14T05:33:13;98565.72;;;16.68;49.81
13050;BME280;6591;51.446;5.404;2023-03-14T05:35:41;98570.09;;;16.69;50.23
13050;BME280;6591;51.446;5.404;2023-03-14T05:38:29;98561.84;;;16.70;49.92
13050;BME280;6591;51.446;5.404;2023-03-14T05:41:32;98560.22;;;16.69;50.02
13050;BME280;6591;51.446;5.404;2023-03-14T05:44:22;98555.84;;;16.68;50.44
13050;BME280;6591;51.446;5.404;2023-03-14T05:47:00;98553.16;;;16.68;50.39
13050;BME280;6591;51.446;5.404;2023-03-14T05:49:51;98554.31;;;16.66;50.35
13050;BME280;6591;51.446;5.404;2023-03-14T05:52:30;98555.31;;;16.65;50.35
13050;BME280;6591;51.446;5.404;2023-03-14T05:55:30;98550.16;;;16.63;50.28
13050;BME280;6591;51.446;5.404;2023-03-14T05:58:22;98551.97;;;16.63;50.52
13050;BME280;6591;51.446;5.404;2023-03-14T06:01:07;98550.16;;;16.63;50.82
13050;BME280;6591;51.446;5.404;2023-03-14T06:03:55;98552.81;;;16.63;51.11
13050;BME280;6591;51.446;5.404;2023-03-14T06:06:22;98551.81;;;16.64;50.83
13050;BME280;6591;51.446;5.404;2023-03-14T06:08:49;98553.47;;;16.65;50.78
13050;BME280;6591;51.446;5.404;2023-03-14T06:11:17;98545.28;;;16.67;51.11
13050;BME280;6591;51.446;5.404;2023-03-14T06:13:46;98547.13;;;16.66;51.34
13050;BME280;6591;51.446;5.404;2023-03-14T06:16:13;98549.66;;;16.68;51.32
13050;BME280;6591;51.446;5.404;2023-03-14T06:18:41;98545.13;;;16.68;51.26
13050;BME280;6591;51.446;5.404;2023-03-14T06:21:10;98549.50;;;16.69;51.32
13050;BME280;6591;51.446;5.404;2023-03-14T06:23:37;98540.41;;;16.70;51.26
13050;BME280;6591;51.446;5.404;2023-03-14T06:26:05;98545.63;;;16.72;51.53
13050;BME280;6591;51.446;5.404;2023-03-14T06:28:33;98548.16;;;16.73;51.42
13050;BME280;6591;51.446;5.404;2023-03-14T06:31:03;98550.63;;;16.75;51.62
13050;BME280;6591;51.446;5.404;2023-03-14T06:33:37;98550.47;;;16.76;51.73
13050;BME280;6591;51.446;5.404;2023-03-14T06:36:06;98551.16;;;16.78;51.94
13050;BME280;6591;51.446;5.404;2023-03-14T06:38:35;98561.53;;;16.81;51.74
13050;BME280;6591;51.446;5.404;2023-03-14T06:41:04;98553.00;;;16.86;51.79
13050;BME280;6591;51.446;5.404;2023-03-14T06:43:40;98550.00;;;16.89;51.84
13050;BME280;6591;51.446;5.404;2023-03-14T06:46:08;98555.03;;;16.92;51.91
13050;BME280;6591;51.446;5.404;2023-03-14T06:48:38;98560.06;;;16.95;51.90
13050;BME280;6591;51.446;5.404;2023-03-14T06:51:07;98553.53;;;16.98;52.06
13050;BME280;6591;51.446;5.404;2023-03-14T06:53:34;98563.59;;;17.04;52.05
13050;BME280;6591;51.446;5.404;2023-03-14T06:56:03;98567.44;;;17.09;51.97
13050;BME280;6591;51.446;5.404;2023-03-14T06:58:32;98578.34;;;17.16;52.26
13050;BME280;6591;51.446;5.404;2023-03-14T07:01:00;98570.63;;;17.21;52.15
13050;BME280;6591;51.446;5.404;2023-03-14T07:03:33;98584.38;;;17.26;52.25
13050;BME280;6591;51.446;5.404;2023-03-14T07:06:00;98571.63;;;17.28;52.15
13050;BME280;6591;51.446;5.404;2023-03-14T07:08:27;98575.00;;;17.30;52.00
13050;BME280;6591;51.446;5.404;2023-03-14T07:10:59;98580.34;;;17.30;51.99
13050;BME280;6591;51.446;5.404;2023-03-14T07:13:29;98591.09;;;17.30;51.91
13050;BME280;6591;51.446;5.404;2023-03-14T07:16:06;98587.72;;;17.28;51.89
13050;BME280;6591;51.446;5.404;2023-03-14T07:18:35;98591.44;;;17.27;52.24
13050;BME280;6591;51.446;5.404;2023-03-14T07:21:07;98598.63;;;17.26;52.50
13050;BME280;6591;51.446;5.404;2023-03-14T07:23:36;98603.31;;;17.24;53.08
13050;BME280;6591;51.446;5.404;2023-03-14T07:26:04;98607.16;;;17.22;53.26
13050;BME280;6591;51.446;5.404;2023-03-14T07:28:33;98627.13;;;17.19;53.60
13050;BME280;6591;51.446;5.404;2023-03-14T07:31:08;98636.50;;;17.15;53.68
13050;BME280;6591;51.446;5.404;2023-03-14T07:33:37;98670.19;;;17.10;53.95
13050;BME280;6591;51.446;5.404;2023-03-14T07:36:05;98731.16;;;17.00;54.40
13050;BME280;6591;51.446;5.404;2023-03-14T07:38:33;98717.69;;;16.83;53.33
13050;BME280;6591;51.446;5.404;2023-03-14T07:41:26;98741.47;;;16.52;52.84
13050;BME280;6591;51.446;5.404;2023-03-14T07:44:11;98748.31;;;16.21;52.63
13050;BME280;6591;51.446;5.404;2023-03-14T07:46:38;98763.19;;;15.98;52.82
13050;BME280;6591;51.446;5.404;2023-03-14T07:49:05;98780.28;;;15.79;52.98
13050;BME280;6591;51.446;5.404;2023-03-14T07:51:32;98790.13;;;15.61;52.99
13050;BME280;6591;51.446;5.404;2023-03-14T07:54:00;98806.97;;;15.44;53.26
13050;BME280;6591;51.446;5.404;2023-03-14T07:56:27;98803.94;;;15.29;53.94
13050;BME280;6591;51.446;5.404;2023-03-14T07:58:54;98811.63;;;15.14;53.85
13050;BME280;6591;51.446;5.404;2023-03-14T08:01:21;98818.31;;;15.01;53.86
13050;BME280;6591;51.446;5.404;2023-03-14T08:03:48;98823.84;;;14.90;54.00
13050;BME280;6591;51.446;5.404;2023-03-14T08:06:15;98821.06;;;14.81;54.58
13050;BME280;6591;51.446;5.404;2023-03-14T08:08:42;98832.50;;;14.74;54.77
13050;BME280;6591;51.446;5.404;2023-03-14T08:11:10;98849.81;;;14.70;54.75
13050;BME280;6591;51.446;5.404;2023-03-14T08:13:37;98851.22;;;14.64;55.14
13050;BME280;6591;51.446;5.404;2023-03-14T08:16:05;98866.69;;;14.61;54.82
13050;BME280;6591;51.446;5.404;2023-03-14T08:18:34;98874.59;;;14.53;55.25
13050;BME280;6591;51.446;5.404;2023-03-14T08:21:03;98898.19;;;14.48;55.46
13050;BME280;6591;51.446;5.404;2023-03-14T08:23:30;98902.69;;;14.47;55.33
13050;BME280;6591;51.446;5.404;2023-03-14T08:25:57;98915.34;;;14.45;55.84
13050;BME280;6591;51.446;5.404;2023-03-14T08:28:24;98909.88;;;14.47;55.69
13050;BME280;6591;51.446;5.404;2023-03-14T08:30:54;98922.50;;;14.45;55.68
13050;BME280;6591;51.446;5.404;2023-03-14T08:33:21;98929.69;;;14.44;55.67
13050;BME280;6591;51.446;5.404;2023-03-14T08:35:52;98937.84;;;14.43;55.55
13050;BME280;6591;51.446;5.404;2023-03-14T08:38:19;98945.97;;;14.41;56.01
13050;BME280;6591;51.446;5.404;2023-03-14T08:40:48;98966.50;;;14.40;55.71
13050;BME280;6591;51.446;5.404;2023-03-14T08:43:16;98977.19;;;14.40;55.90
13050;BME280;6591;51.446;5.404;2023-03-14T08:45:43;98973.81;;;14.38;55.85
13050;BME280;6591;51.446;5.404;2023-03-14T08:48:10;98988.16;;;14.37;55.62
13050;BME280;6591;51.446;5.404;2023-03-14T08:50:37;99000.75;;;14.35;55.65
13050;BME280;6591;51.446;5.404;2023-03-14T08:53:05;99000.19;;;14.32;55.41
13050;BME280;6591;51.446;5.404;2023-03-14T08:55:32;99011.97;;;14.29;55.67
13050;BME280;6591;51.446;5.404;2023-03-14T08:58:00;99017.59;;;14.26;55.66
13050;BME280;6591;51.446;5.404;2023-03-14T09:00:26;99031.94;;;14.25;55.91
13050;BME280;6591;51.446;5.404;2023-03-14T09:02:53;99039.25;;;14.23;55.72
13050;BME280;6591;51.446;5.404;2023-03-14T09:05:20;99040.06;;;14.24;55.85
13050;BME280;6591;51.446;5.404;2023-03-14T09:07:48;99053.56;;;14.22;56.15
13050;BME280;6591;51.446;5.404;2023-03-14T09:10:15;99068.88;;;14.20;56.21
13050;BME280;6591;51.446;5.404;2023-03-14T09:12:42;99071.53;;;14.20;56.31
13050;BME280;6591;51.446;5.404;2023-03-14T09:15:11;99077.84;;;14.19;56.76
13050;BME280;6591;51.446;5.404;2023-03-14T09:17:38;99078.56;;;14.21;56.29
13050;BME280;6591;51.446;5.404;2023-03-14T09:20:05;99088.28;;;14.22;56.79
13050;BME280;6591;51.446;5.404;2023-03-14T09:22:33;99097.69;;;14.26;56.69
13050;BME280;6591;51.446;5.404;2023-03-14T09:25:04;99103.59;;;14.30;57.05
13050;BME280;6591;51.446;5.404;2023-03-14T09:27:31;99110.38;;;14.34;57.08
13050;BME280;6591;51.446;5.404;2023-03-14T09:29:58;99110.97;;;14.37;56.99
13050;BME280;6591;51.446;5.404;2023-03-14T09:32:25;99127.56;;;14.41;56.93
13050;BME280;6591;51.446;5.404;2023-03-14T09:34:52;99113.09;;;14.44;56.82
13050;BME280;6591;51.446;5.404;2023-03-14T09:37:19;99138.56;;;14.48;56.60
13050;BME280;6591;51.446;5.404;2023-03-14T09:39:47;99160.75;;;14.48;56.38
13050;BME280;6591;51.446;5.404;2023-03-14T09:42:22;99174.13;;;14.48;56.12
13050;BME280;6591;51.446;5.404;2023-03-14T09:45:07;99187.88;;;14.44;55.92
13050;BME280;6591;51.446;5.404;2023-03-14T09:47:37;99199.66;;;14.41;55.67
13050;BME280;6591;51.446;5.404;2023-03-14T09:50:25;99225.84;;;14.26;55.05
13050;BME280;6591;51.446;5.404;2023-03-14T09:53:00;99244.88;;;14.12;54.96
13050;BME280;6591;51.446;5.404;2023-03-14T09:55:28;99264.22;;;14.05;55.00
13050;BME280;6591;51.446;5.404;2023-03-14T09:58:02;99271.69;;;13.90;54.78
13050;BME280;6591;51.446;5.404;2023-03-14T10:00:31;99284.00;;;13.81;54.82
13050;BME280;6591;51.446;5.404;2023-03-14T10:03:29;99293.53;;;13.63;54.49
13050;BME280;6591;51.446;5.404;2023-03-14T10:05:59;99320.81;;;13.55;54.35
13050;BME280;6591;51.446;5.404;2023-03-14T10:08:26;99332.72;;;13.40;53.61
13050;BME280;6591;51.446;5.404;2023-03-14T10:10:54;99335.44;;;13.29;53.85
13050;BME280;6591;51.446;5.404;2023-03-14T10:13:26;99350.44;;;13.19;54.24
13050;BME280;6591;51.446;5.404;2023-03-14T10:16:04;99354.59;;;13.12;54.96
13050;BME280;6591;51.446;5.404;2023-03-14T10:18:34;99368.63;;;13.14;55.10
13050;BME280;6591;51.446;5.404;2023-03-14T10:21:17;99385.34;;;13.16;55.69
13050;BME280;6591;51.446;5.404;2023-03-14T10:23:47;99388.03;;;13.27;55.72
13050;BME280;6591;51.446;5.404;2023-03-14T10:26:27;99401.56;;;13.35;56.01
13050;BME280;6591;51.446;5.404;2023-03-14T10:29:21;99415.63;;;13.37;55.22
13050;BME280;6591;51.446;5.404;2023-03-14T10:31:52;99419.75;;;13.52;55.28
13050;BME280;6591;51.446;5.404;2023-03-14T10:34:35;99439.34;;;13.63;54.95
13050;BME280;6591;51.446;5.404;2023-03-14T10:39:49;99445.16;;;13.79;54.82
13050;BME280;6591;51.446;5.404;2023-03-14T10:42:26;99469.41;;;13.87;54.52
13050;BME280;6591;51.446;5.404;2023-03-14T10:48:30;99482.97;;;13.95;53.35
13050;BME280;6591;51.446;5.404;2023-03-14T10:53:47;99507.53;;;14.10;52.64
13050;BME280;6591;51.446;5.404;2023-03-14T10:56:23;99507.31;;;14.13;51.71
13050;BME280;6591;51.446;5.404;2023-03-14T10:58:54;99525.84;;;14.14;51.55
13050;BME280;6591;51.446;5.404;2023-03-14T11:04:21;99549.19;;;14.01;51.44
13050;BME280;6591;51.446;5.404;2023-03-14T11:07:09;99574.44;;;13.86;51.55
13050;BME280;6591;51.446;5.404;2023-03-14T11:10:22;99588.00;;;13.72;52.21
13050;BME280;6591;51.446;5.404;2023-03-14T11:16:17;99600.19;;;13.41;52.36
13050;BME280;6591;51.446;5.404;2023-03-14T11:19:20;99608.06;;;13.31;52.85
13050;BME280;6591;51.446;5.404;2023-03-14T11:21:58;99617.25;;;13.27;53.44
13050;BME280;6591;51.446;5.404;2023-03-14T11:27:34;99631.09;;;13.32;53.73
13050;BME280;6591;51.446;5.404;2023-03-14T11:33:08;99642.50;;;13.45;54.12
13050;BME280;6591;51.446;5.404;2023-03-14T11:38:42;99649.81;;;13.54;54.12
13050;BME280;6591;51.446;5.404;2023-03-14T11:41:23;99661.69;;;13.62;54.12
13050;BME280;6591;51.446;5.404;2023-03-14T11:43:56;99681.59;;;13.69;53.52
13050;BME280;6591;51.446;5.404;2023-03-14T11:46:28;99704.00;;;13.66;52.58
13050;BME280;6591;51.446;5.404;2023-03-14T11:49:03;99727.16;;;13.54;52.64
13050;BME280;6591;51.446;5.404;2023-03-14T11:51:36;99729.28;;;13.38;52.49
13050;BME280;6591;51.446;5.404;2023-03-14T11:57:17;99733.69;;;13.03;53.18
13050;BME280;6591;51.446;5.404;2023-03-14T12:00:20;99739.13;;;12.89;54.06
13050;BME280;6591;51.446;5.404;2023-03-14T12:03:51;99748.09;;;12.88;54.29
13050;BME280;6591;51.446;5.404;2023-03-14T12:06:50;99751.84;;;12.85;54.63
13050;BME280;6591;51.446;5.404;2023-03-14T12:09:22;99753.13;;;12.92;54.19
13050;BME280;6591;51.446;5.404;2023-03-14T12:12:05;99763.53;;;12.95;54.81
13050;BME280;6591;51.446;5.404;2023-03-14T12:14:35;99775.97;;;13.07;55.17
13050;BME280;6591;51.446;5.404;2023-03-14T12:19:41;99802.16;;;13.26;55.03
13050;BME280;6591;51.446;5.404;2023-03-14T12:22:24;99787.53;;;13.32;54.79
13050;BME280;6591;51.446;5.404;2023-03-14T12:25:26;99792.31;;;13.39;54.92
13050;BME280;6591;51.446;5.404;2023-03-14T12:35:52;99808.31;;;13.39;54.10
13050;BME280;6591;51.446;5.404;2023-03-14T12:41:36;99816.63;;;13.58;54.12
13050;BME280;6591;51.446;5.404;2023-03-14T12:49:50;99820.13;;;13.83;52.05
13050;BME280;6591;51.446;5.404;2023-03-14T12:52:36;99825.25;;;13.86;51.82
13050;BME280;6591;51.446;5.404;2023-03-14T12:55:24;99837.78;;;13.96;51.64
13050;BME280;6591;51.446;5.404;2023-03-14T13:00:54;99844.66;;;14.23;52.31
13050;BME280;6591;51.446;5.404;2023-03-14T13:03:26;99840.94;;;14.36;51.79
13050;BME280;6591;51.446;5.404;2023-03-14T13:06:03;99844.50;;;14.48;51.73
13050;BME280;6591;51.446;5.404;2023-03-14T13:08:40;99853.00;;;14.53;51.44
13050;BME280;6591;51.446;5.404;2023-03-14T13:11:16;99857.75;;;14.61;50.64
13050;BME280;6591;51.446;5.404;2023-03-14T13:13:58;99862.88;;;14.64;49.43
13050;BME280;6591;51.446;5.404;2023-03-14T13:16:28;99870.41;;;14.70;48.95
13050;BME280;6591;51.446;5.404;2023-03-14T13:19:13;99871.97;;;14.72;48.35
13050;BME280;6591;51.446;5.404;2023-03-14T13:21:41;99872.34;;;14.79;46.70
13050;BME280;6591;51.446;5.404;2023-03-14T13:24:25;99873.56;;;14.75;45.48
13050;BME280;6591;51.446;5.404;2023-03-14T13:26:56;99883.63;;;14.82;45.69
13050;BME280;6591;51.446;5.404;2023-03-14T13:29:32;99897.97;;;14.93;44.74
13050;BME280;6591;51.446;5.404;2023-03-14T13:32:12;99888.16;;;15.04;45.22
13050;BME280;6591;51.446;5.404;2023-03-14T13:34:43;99905.06;;;15.16;43.95
13050;BME280;6591;51.446;5.404;2023-03-14T13:37:22;99902.59;;;15.24;42.02
13050;BME280;6591;51.446;5.404;2023-03-14T13:39:51;99921.59;;;15.32;41.93
13050;BME280;6591;51.446;5.404;2023-03-14T13:42:20;99913.19;;;15.37;40.24
13050;BME280;6591;51.446;5.404;2023-03-14T13:44:47;99917.19;;;15.42;38.87
13050;BME280;6591;51.446;5.404;2023-03-14T13:47:18;99931.28;;;15.44;38.06
13050;BME280;6591;51.446;5.404;2023-03-14T13:49:48;99970.31;;;15.47;37.81
13050;BME280;6591;51.446;5.404;2023-03-14T13:52:31;99951.84;;;15.44;36.45
13050;BME280;6591;51.446;5.404;2023-03-14T13:55:01;99961.56;;;15.45;36.37
13050;BME280;6591;51.446;5.404;2023-03-14T13:57:49;99963.75;;;15.40;35.63
13050;BME280;6591;51.446;5.404;2023-03-14T14:00:22;99973.13;;;15.45;36.76
13050;BME280;6591;51.446;5.404;2023-03-14T14:03:00;99983.72;;;15.47;36.81
13050;BME280;6591;51.446;5.404;2023-03-14T14:05:29;99995.66;;;15.54;36.39
13050;BME280;6591;51.446;5.404;2023-03-14T14:07:58;100002.94;;;15.63;38.06
13050;BME280;6591;51.446;5.404;2023-03-14T14:10:28;100007.56;;;15.72;37.86
13050;BME280;6591;51.446;5.404;2023-03-14T14:13:02;100019.59;;;15.78;37.17
13050;BME280;6591;51.446;5.404;2023-03-14T14:15:41;100039.69;;;15.83;36.88
13050;BME280;6591;51.446;5.404;2023-03-14T14:18:14;100054.41;;;15.89;36.77
13050;BME280;6591;51.446;5.404;2023-03-14T14:20:45;100065.72;;;15.92;35.68
13050;BME280;6591;51.446;5.404;2023-03-14T14:23:33;100059.38;;;15.93;35.18
13050;BME280;6591;51.446;5.404;2023-03-14T14:26:05;100076.78;;;15.88;34.77
13050;BME280;6591;51.446;5.404;2023-03-14T14:28:36;100082.50;;;15.83;34.53
13050;BME280;6591;51.446;5.404;2023-03-14T14:33:59;100095.19;;;15.70;34.71
13050;BME280;6591;51.446;5.404;2023-03-14T14:36:42;100106.84;;;15.69;35.37